createdAt,value
2022-11-22T00:00:19.882Z,11.25
2022-11-22T00:02:48.284Z,9.93
2022-11-22T00:05:16.316Z,10.65
2022-11-22T00:07:44.347Z,11.05
2022-11-22T00:10:14.553Z,11.40
2022-11-22T00:12:42.560Z,11.10
2022-11-22T00:15:14.077Z,10.85
2022-11-22T00:17:42.025Z,11.48
2022-11-22T00:20:11.777Z,11.18
2022-11-22T00:22:45.043Z,8.45
2022-11-22T00:25:13.904Z,11.68
2022-11-22T00:27:42.305Z,11.95
2022-11-22T00:30:11.052Z,13.02
2022-11-22T00:32:39.008Z,9.20
2022-11-22T00:35:07.418Z,11.30
2022-11-22T00:37:35.416Z,8.13
2022-11-22T00:40:03.609Z,9.70
2022-11-22T00:42:31.481Z,8.43
2022-11-22T00:44:59.386Z,7.93
2022-11-22T00:47:27.330Z,9.95
2022-11-22T00:49:55.259Z,7.72
2022-11-22T00:52:23.190Z,8.35
2022-11-22T00:54:54.730Z,9.45
2022-11-22T00:57:23.391Z,7.68
2022-11-22T00:59:51.414Z,8.55
2022-11-22T01:02:19.357Z,7.03
2022-11-22T01:04:47.380Z,8.10
2022-11-22T01:07:15.437Z,7.97
2022-11-22T01:09:43.469Z,7.05
2022-11-22T01:12:11.513Z,7.10
2022-11-22T01:14:39.409Z,8.48
2022-11-22T01:17:07.419Z,8.07
2022-11-22T01:19:35.297Z,11.98
2022-11-22T01:22:03.224Z,8.30
2022-11-22T01:24:31.132Z,13.85
2022-11-22T01:26:59.096Z,8.55
2022-11-22T01:29:27.227Z,10.93
2022-11-22T01:31:55.210Z,9.57
2022-11-22T01:34:23.160Z,8.50
2022-11-22T01:36:51.040Z,10.00
2022-11-22T01:39:19.992Z,9.25
2022-11-22T01:41:48.005Z,8.20
2022-11-22T01:44:19.900Z,10.57
2022-11-22T01:46:50.466Z,6.95
2022-11-22T01:49:35.723Z,9.27
2022-11-22T01:52:26.187Z,7.60
2022-11-22T01:55:05.045Z,7.97
2022-11-22T01:57:36.520Z,6.97
2022-11-22T02:02:51.339Z,6.33
2022-11-22T02:05:22.193Z,7.22
2022-11-22T02:08:33.423Z,7.50
2022-11-22T02:11:03.961Z,5.95
2022-11-22T02:13:35.376Z,6.37
2022-11-22T02:18:32.259Z,5.68
2022-11-22T02:21:00.777Z,7.80
2022-11-22T02:23:45.704Z,6.28
2022-11-22T02:26:14.276Z,4.45
2022-11-22T02:28:42.479Z,6.85
2022-11-22T02:31:12.715Z,7.63
2022-11-22T02:33:40.679Z,7.00
2022-11-22T02:36:12.966Z,5.25
2022-11-22T02:38:49.685Z,4.82
2022-11-22T02:41:17.823Z,4.60
2022-11-22T02:43:47.929Z,5.85
2022-11-22T02:46:21.637Z,4.30
2022-11-22T02:48:49.795Z,4.45
2022-11-22T02:51:20.814Z,4.95
2022-11-22T02:53:51.674Z,4.80
2022-11-22T02:56:19.710Z,4.47
2022-11-22T02:58:47.675Z,4.43
2022-11-22T03:01:15.634Z,3.53
2022-11-22T03:03:43.507Z,3.78
2022-11-22T03:06:11.509Z,4.18
2022-11-22T03:08:39.430Z,3.85
2022-11-22T03:11:07.409Z,4.80
2022-11-22T03:13:35.286Z,5.03
2022-11-22T03:16:03.279Z,4.40
2022-11-22T03:18:31.236Z,9.13
2022-11-22T03:21:06.933Z,4.13
2022-11-22T03:23:35.405Z,4.60
2022-11-22T03:26:13.239Z,4.97
2022-11-22T03:28:41.172Z,4.55
2022-11-22T03:31:09.890Z,4.80
2022-11-22T03:33:37.818Z,2.67
2022-11-22T03:36:05.886Z,4.03
2022-11-22T03:38:39.645Z,2.65
2022-11-22T03:41:07.561Z,3.15
2022-11-22T03:43:35.483Z,3.13
2022-11-22T03:46:03.498Z,5.18
2022-11-22T03:48:31.737Z,4.13
2022-11-22T03:51:07.377Z,4.32
2022-11-22T03:53:35.388Z,4.25
2022-11-22T03:56:03.258Z,3.45
2022-11-22T03:58:31.661Z,4.97
2022-11-22T04:00:59.802Z,3.67
2022-11-22T04:03:28.458Z,5.97
2022-11-22T04:05:56.304Z,3.35
2022-11-22T04:08:24.589Z,7.80
2022-11-22T04:10:53.115Z,3.58
2022-11-22T04:13:21.442Z,3.30
2022-11-22T04:15:49.596Z,3.75
2022-11-22T04:18:17.580Z,3.80
2022-11-22T04:21:03.956Z,3.42
2022-11-22T04:23:34.322Z,4.43
2022-11-22T04:26:02.585Z,4.30
2022-11-22T04:29:01.458Z,3.28
2022-11-22T04:31:38.020Z,3.38
2022-11-22T04:34:05.951Z,4.22
2022-11-22T04:36:33.805Z,4.05
2022-11-22T04:39:01.772Z,5.07
2022-11-22T04:41:29.691Z,5.60
2022-11-22T04:44:16.358Z,4.43
2022-11-22T04:46:44.314Z,4.80
2022-11-22T04:49:12.301Z,4.13
2022-11-22T04:51:58.717Z,3.80
2022-11-22T04:54:29.698Z,4.93
2022-11-22T04:56:57.634Z,3.78
2022-11-22T04:59:26.490Z,4.65
2022-11-22T05:01:56.778Z,4.10
2022-11-22T05:04:24.710Z,3.45
2022-11-22T05:06:57.831Z,4.90
2022-11-22T05:09:27.627Z,3.83
2022-11-22T05:11:55.743Z,5.40
2022-11-22T05:14:23.604Z,13.15
2022-11-22T05:16:51.591Z,3.17
2022-11-22T05:19:19.446Z,3.75
2022-11-22T05:21:47.409Z,4.20
2022-11-22T05:24:15.454Z,4.20
2022-11-22T05:26:43.460Z,4.85
2022-11-22T05:29:11.975Z,3.55
2022-11-22T05:31:40.930Z,4.75
2022-11-22T05:34:08.819Z,16.88
2022-11-22T05:36:36.973Z,9.95
2022-11-22T05:39:05.401Z,4.85
2022-11-22T05:41:33.314Z,5.47
2022-11-22T05:44:01.480Z,8.50
2022-11-22T05:46:31.165Z,11.02
2022-11-22T05:48:59.809Z,6.82
2022-11-22T05:51:34.590Z,5.15
2022-11-22T05:54:03.814Z,4.70
2022-11-22T05:56:31.797Z,4.65
2022-11-22T05:58:59.864Z,4.45
2022-11-22T06:01:27.898Z,4.13
2022-11-22T06:03:56.381Z,5.03
2022-11-22T06:06:24.349Z,8.73
2022-11-22T06:08:52.711Z,11.43
2022-11-22T06:11:23.266Z,4.72
2022-11-22T06:13:53.914Z,5.80
2022-11-22T06:16:22.559Z,5.28
2022-11-22T06:18:50.533Z,5.28
2022-11-22T06:21:27.119Z,6.25
2022-11-22T06:23:58.217Z,3.13
2022-11-22T06:26:33.561Z,5.40
2022-11-22T06:29:05.758Z,4.15
2022-11-22T06:31:33.654Z,5.28
2022-11-22T06:34:01.866Z,9.45
2022-11-22T06:36:32.452Z,4.25
2022-11-22T06:39:00.842Z,4.88
2022-11-22T06:41:32.306Z,7.30
2022-11-22T06:44:00.354Z,7.55
2022-11-22T06:46:28.801Z,24.45
2022-11-22T06:48:56.768Z,9.63
2022-11-22T06:51:31.654Z,20.85
2022-11-22T06:54:00.009Z,5.30
2022-11-22T06:56:33.809Z,4.35
2022-11-22T06:59:07.648Z,7.03
2022-11-22T07:01:36.754Z,9.25
2022-11-22T07:04:05.601Z,11.27
2022-11-22T07:06:36.533Z,5.25
2022-11-22T07:09:06.996Z,6.03
2022-11-22T07:11:37.117Z,8.27
2022-11-22T07:14:08.768Z,8.77
2022-11-22T07:16:40.404Z,5.38
2022-11-22T07:19:11.569Z,6.85
2022-11-22T07:21:39.558Z,15.77
2022-11-22T07:24:08.188Z,8.75
2022-11-22T07:26:36.180Z,5.22
2022-11-22T07:29:04.672Z,6.25
2022-11-22T07:31:32.534Z,7.47
2022-11-22T07:34:00.500Z,9.40
2022-11-22T07:36:30.542Z,9.00
2022-11-22T07:38:58.524Z,8.07
2022-11-22T07:41:26.627Z,11.20
2022-11-22T07:43:55.176Z,6.47
2022-11-22T07:46:30.872Z,7.10
2022-11-22T07:49:00.301Z,7.65
2022-11-22T07:51:28.999Z,8.02
2022-11-22T07:53:57.961Z,9.57
2022-11-22T07:56:26.098Z,5.90
2022-11-22T07:58:54.542Z,11.13
2022-11-22T08:01:22.913Z,6.88
2022-11-22T08:03:50.918Z,6.65
2022-11-22T08:06:18.787Z,8.32
2022-11-22T08:08:46.750Z,8.50
2022-11-22T08:11:14.740Z,8.90
2022-11-22T08:13:43.564Z,7.88
2022-11-22T08:16:14.491Z,6.53
2022-11-22T08:18:46.634Z,5.57
2022-11-22T08:21:15.592Z,6.85
2022-11-22T08:23:44.757Z,7.47
2022-11-22T08:26:15.841Z,7.10
2022-11-22T08:28:44.836Z,9.30
2022-11-22T08:31:17.957Z,17.02
2022-11-22T08:33:48.286Z,10.68
2022-11-22T08:36:16.552Z,11.30
2022-11-22T08:38:47.341Z,6.82
2022-11-22T08:41:18.757Z,12.52
2022-11-22T08:46:14.595Z,9.55
2022-11-22T08:48:42.474Z,11.45
2022-11-22T08:51:13.133Z,9.65
2022-11-22T08:53:43.242Z,8.88
2022-11-22T08:56:15.985Z,10.25
2022-11-22T08:58:44.268Z,10.50
2022-11-22T09:01:19.971Z,12.85
2022-11-22T09:03:48.176Z,8.43
2022-11-22T09:09:36.831Z,17.63
2022-11-22T09:11:56.068Z,14.55
2022-11-22T09:14:24.103Z,11.05
2022-11-22T09:16:52.071Z,14.32
2022-11-22T09:19:19.972Z,8.60
2022-11-22T09:21:47.808Z,12.15
2022-11-22T09:24:16.382Z,8.65
2022-11-22T09:26:44.293Z,19.00
2022-11-22T09:29:12.164Z,28.90
2022-11-22T09:31:40.055Z,25.92
2022-11-22T09:34:08.795Z,10.90
2022-11-22T09:36:37.005Z,11.20
2022-11-22T09:39:04.989Z,14.13
2022-11-22T09:42:12.452Z,11.90
2022-11-22T09:45:01.363Z,11.82
2022-11-22T09:47:43.758Z,8.65
2022-11-22T09:50:56.376Z,11.95
2022-11-22T09:53:36.519Z,12.50
2022-11-22T09:56:10.755Z,8.68
2022-11-22T09:58:53.415Z,18.00
2022-11-22T10:01:29.066Z,11.05
2022-11-22T10:04:11.465Z,11.77
2022-11-22T10:06:48.576Z,12.35
2022-11-22T10:09:42.585Z,11.27
2022-11-22T10:12:33.060Z,13.00
2022-11-22T10:15:22.060Z,11.32
2022-11-22T10:18:00.239Z,17.25
2022-11-22T10:20:34.729Z,19.02
2022-11-22T10:23:03.584Z,8.30
2022-11-22T10:25:45.438Z,7.03
2022-11-22T10:28:26.957Z,9.55
2022-11-22T10:33:54.716Z,6.65
2022-11-22T10:36:38.083Z,11.80
2022-11-22T10:39:37.182Z,8.70
2022-11-22T10:42:19.155Z,8.80
2022-11-22T10:45:07.755Z,10.80
2022-11-22T10:47:52.912Z,6.15
2022-11-22T10:50:42.529Z,6.22
2022-11-22T10:53:23.397Z,8.35
2022-11-22T10:56:42.127Z,6.80
2022-11-22T10:59:54.604Z,9.68
2022-11-22T11:02:49.249Z,14.80
2022-11-22T11:05:21.679Z,12.13
2022-11-22T11:07:56.665Z,10.23
2022-11-22T11:10:40.231Z,10.68
2022-11-22T11:13:21.225Z,10.40
2022-11-22T11:16:01.799Z,7.35
2022-11-22T11:18:44.604Z,13.75
2022-11-22T11:21:16.050Z,8.23
2022-11-22T11:26:32.957Z,11.05
2022-11-22T11:29:26.710Z,8.70
2022-11-22T11:32:27.069Z,9.45
2022-11-22T11:35:01.347Z,6.28
2022-11-22T11:37:38.156Z,8.48
2022-11-22T11:40:27.829Z,8.77
2022-11-22T11:43:20.165Z,6.57
2022-11-22T11:45:48.789Z,8.23
2022-11-22T11:48:42.290Z,7.55
2022-11-22T11:51:21.667Z,8.15
2022-11-22T11:54:06.076Z,10.65
2022-11-22T11:56:59.506Z,9.45
2022-11-22T11:59:39.603Z,9.85
2022-11-22T12:02:12.291Z,10.35
2022-11-22T12:04:51.896Z,9.02
2022-11-22T12:07:25.907Z,5.80
2022-11-22T12:09:56.468Z,8.75
2022-11-22T12:12:33.065Z,9.47
2022-11-22T12:15:52.724Z,6.40
2022-11-22T12:18:34.574Z,7.60
2022-11-22T12:21:25.583Z,7.25
2022-11-22T12:27:12.440Z,9.18
2022-11-22T12:29:43.161Z,9.60
2022-11-22T12:32:31.128Z,7.03
2022-11-22T12:35:10.382Z,9.25
2022-11-22T12:38:10.923Z,7.75
2022-11-22T12:40:45.056Z,6.78
2022-11-22T12:43:32.915Z,11.15
2022-11-22T12:46:11.274Z,4.55
2022-11-22T12:51:45.100Z,9.45
2022-11-22T12:54:18.646Z,7.75
2022-11-22T12:56:55.057Z,6.18
2022-11-22T12:59:45.100Z,10.10
2022-11-22T13:02:30.709Z,7.30
2022-11-22T13:05:13.174Z,6.03
2022-11-22T13:07:55.547Z,12.90
2022-11-22T13:10:43.966Z,12.48
2022-11-22T13:13:26.181Z,8.30
2022-11-22T13:15:57.230Z,10.27
2022-11-22T13:18:29.165Z,7.80
2022-11-22T13:21:21.737Z,8.38
2022-11-22T13:24:29.486Z,6.97
2022-11-22T13:27:09.497Z,11.80
2022-11-22T13:29:41.162Z,7.22
2022-11-22T13:32:11.934Z,12.75
2022-11-22T13:35:00.683Z,10.90
2022-11-22T13:37:31.368Z,9.35
2022-11-22T13:40:22.717Z,8.05
2022-11-22T13:43:21.857Z,12.82
2022-11-22T13:45:57.248Z,8.63
2022-11-22T13:48:43.216Z,9.30
2022-11-22T13:51:27.601Z,9.25
2022-11-22T13:54:33.917Z,7.95
2022-11-22T13:57:06.084Z,11.45
2022-11-22T13:59:34.001Z,8.10
2022-11-22T14:02:04.653Z,10.13
2022-11-22T14:04:39.942Z,13.70
2022-11-22T14:07:49.184Z,14.68
2022-11-22T14:10:51.666Z,14.57
2022-11-22T14:13:22.696Z,12.55
2022-11-22T14:16:12.531Z,6.80
2022-11-22T14:19:00.149Z,9.50
2022-11-22T14:21:49.895Z,8.93
2022-11-22T14:24:37.383Z,9.73
2022-11-22T14:27:14.732Z,7.15
2022-11-22T14:30:20.434Z,8.45
2022-11-22T14:33:16.716Z,9.90
2022-11-22T14:36:09.263Z,9.68
2022-11-22T14:38:39.821Z,9.55
2022-11-22T14:41:29.511Z,9.83
2022-11-22T14:44:15.682Z,10.00
2022-11-22T14:47:06.972Z,7.57
2022-11-22T14:49:48.902Z,5.95
2022-11-22T14:52:26.769Z,9.93
2022-11-22T14:55:09.780Z,6.28
2022-11-22T14:57:38.621Z,10.02
2022-11-22T15:00:24.981Z,8.77
2022-11-22T15:03:11.761Z,9.88
2022-11-22T15:09:15.370Z,10.68
2022-11-22T15:09:39.348Z,9.13
2022-11-22T15:12:11.145Z,9.95
2022-11-22T15:57:24.605Z,12.18
2022-11-22T15:59:55.711Z,10.13
2022-11-22T16:02:32.128Z,11.95
2022-11-22T16:06:06.678Z,18.35
2022-11-22T16:07:56.605Z,13.70
2022-11-22T16:10:50.274Z,14.40
2022-11-22T16:13:21.328Z,13.18
2022-11-22T16:16:05.209Z,13.30
2022-11-22T16:18:33.441Z,13.00
2022-11-22T16:21:03.296Z,15.40
2022-11-22T16:23:36.297Z,17.55
2022-11-22T16:26:18.972Z,17.42
2022-11-22T16:28:52.528Z,13.88
2022-11-22T16:31:24.749Z,11.40
2022-11-22T16:33:54.085Z,11.90
2022-11-22T16:36:23.727Z,10.55
2022-11-22T16:38:51.837Z,15.90
2022-11-22T16:41:26.691Z,12.20
2022-11-22T16:44:00.207Z,11.38
2022-11-22T16:46:28.536Z,10.95
2022-11-22T16:48:57.624Z,13.48
2022-11-22T16:51:31.173Z,11.77
2022-11-22T16:54:01.188Z,12.43
2022-11-22T16:56:30.996Z,13.80
2022-11-22T16:58:59.597Z,16.48
2022-11-22T17:01:33.545Z,15.95
2022-11-22T17:04:02.794Z,13.65
2022-11-22T17:06:32.272Z,9.98
2022-11-22T17:09:01.328Z,12.15
2022-11-22T17:11:32.657Z,14.75
2022-11-22T17:14:01.543Z,11.93
2022-11-22T17:16:29.541Z,13.45
2022-11-22T17:18:57.592Z,10.38
2022-11-22T17:21:36.138Z,11.30
2022-11-22T17:24:27.848Z,14.48
2022-11-22T17:26:55.828Z,12.82
2022-11-22T17:32:14.759Z,12.48
2022-11-22T17:34:42.676Z,11.80
2022-11-22T17:37:13.506Z,11.93
2022-11-22T17:39:41.590Z,14.45
2022-11-22T17:42:09.577Z,13.85
2022-11-22T17:44:37.508Z,18.23
2022-11-22T17:47:05.414Z,16.40
2022-11-22T17:49:33.691Z,17.67
2022-11-22T17:52:01.896Z,14.27
2022-11-22T17:54:29.828Z,16.90
2022-11-22T17:56:57.763Z,19.90
2022-11-22T17:59:25.779Z,21.98
2022-11-22T18:05:20.586Z,22.38
2022-11-22T18:07:48.563Z,24.08
2022-11-22T18:10:16.560Z,27.33
2022-11-22T18:12:58.555Z,26.67
2022-11-22T18:15:33.820Z,23.08
2022-11-22T18:18:01.666Z,29.02
2022-11-22T18:20:29.581Z,24.00
2022-11-22T18:22:59.717Z,22.30
2022-11-22T18:25:27.590Z,24.35
2022-11-22T18:27:57.094Z,24.13
2022-11-22T18:30:27.400Z,18.38
2022-11-22T18:32:59.160Z,21.40
2022-11-22T18:35:28.044Z,23.88
2022-11-22T18:37:56.108Z,18.42
2022-11-22T18:40:24.509Z,17.73
2022-11-22T18:42:52.665Z,14.55
2022-11-22T18:45:20.845Z,21.65
2022-11-22T18:47:48.748Z,25.65
2022-11-22T18:50:16.713Z,31.95
2022-11-22T18:52:45.368Z,26.25
2022-11-22T18:55:16.805Z,25.35
2022-11-22T19:00:18.954Z,22.83
2022-11-22T19:02:47.125Z,26.08
2022-11-22T19:05:15.339Z,16.15
2022-11-22T19:07:43.344Z,20.83
2022-11-22T19:10:11.450Z,19.42
2022-11-22T19:12:39.413Z,17.08
2022-11-22T19:15:07.911Z,18.52
2022-11-22T19:17:35.996Z,19.77
2022-11-22T19:20:03.985Z,19.77
2022-11-22T19:22:31.893Z,16.20
2022-11-22T19:24:59.931Z,16.00
2022-11-22T19:27:27.838Z,22.70
2022-11-22T19:29:55.734Z,14.85
2022-11-22T19:32:23.765Z,19.10
2022-11-22T19:34:52.427Z,16.80
2022-11-22T19:37:20.285Z,18.15
2022-11-22T19:39:49.761Z,14.48
2022-11-22T19:42:18.850Z,14.63
2022-11-22T19:44:46.819Z,16.52
2022-11-22T19:47:14.824Z,16.80
2022-11-22T19:49:42.753Z,19.35
2022-11-22T19:52:10.745Z,17.80
2022-11-22T19:54:39.637Z,16.25
2022-11-22T19:57:07.705Z,19.00
2022-11-22T19:59:37.049Z,17.67
2022-11-22T20:02:05.260Z,14.40
2022-11-22T20:04:33.548Z,17.10
2022-11-22T20:07:01.514Z,15.38
2022-11-22T20:09:29.603Z,15.30
2022-11-22T20:12:00.411Z,13.48
2022-11-22T20:14:28.715Z,19.65
2022-11-22T20:16:59.330Z,17.45
2022-11-22T20:19:32.687Z,20.02
2022-11-22T20:22:02.106Z,18.75
2022-11-22T20:24:31.360Z,14.85
2022-11-22T20:26:59.272Z,15.77
2022-11-22T20:29:27.181Z,15.85
2022-11-22T20:31:56.067Z,15.63
2022-11-22T20:34:24.882Z,16.35
2022-11-22T20:36:52.808Z,23.98
2022-11-22T20:39:25.625Z,34.20
2022-11-22T20:42:11.694Z,29.40
2022-11-22T20:44:41.393Z,24.65
2022-11-22T20:47:10.581Z,22.65
2022-11-22T20:49:43.941Z,22.15
2022-11-22T20:52:13.381Z,21.05
2022-11-22T20:54:41.289Z,20.15
2022-11-22T20:57:09.188Z,17.85
2022-11-22T20:59:37.049Z,16.33
2022-11-22T21:02:09.075Z,16.52
2022-11-22T21:04:37.577Z,17.95
2022-11-22T21:07:05.609Z,13.32
2022-11-22T21:09:33.574Z,16.65
2022-11-22T21:12:01.489Z,17.58
2022-11-22T21:14:29.792Z,13.70
2022-11-22T21:16:57.969Z,16.38
2022-11-22T21:19:28.815Z,16.58
2022-11-22T21:21:56.947Z,16.35
2022-11-22T21:24:24.831Z,13.80
2022-11-22T21:26:52.816Z,17.42
2022-11-22T21:29:20.705Z,14.23
2022-11-22T21:31:48.612Z,15.18
2022-11-22T21:34:16.539Z,16.90
2022-11-22T21:36:44.421Z,13.75
2022-11-22T21:39:12.490Z,16.52
2022-11-22T21:41:41.215Z,11.90
2022-11-22T21:44:10.324Z,15.25
2022-11-22T21:46:38.470Z,13.52
2022-11-22T21:49:06.650Z,13.98
2022-11-22T21:51:34.637Z,13.55
2022-11-22T21:54:03.608Z,11.25
2022-11-22T21:56:31.719Z,11.60
2022-11-22T21:58:59.725Z,12.52
2022-11-22T22:01:28.364Z,14.85
2022-11-22T22:03:56.344Z,15.68
2022-11-22T22:06:24.528Z,16.10
2022-11-22T22:08:52.539Z,15.13
2022-11-22T22:11:20.437Z,13.75
2022-11-22T22:13:48.404Z,15.27
2022-11-22T22:16:24.836Z,14.73
2022-11-22T22:18:53.752Z,12.20
2022-11-22T22:21:22.352Z,13.35
2022-11-22T22:23:50.414Z,16.08
2022-11-22T22:26:19.008Z,17.95
2022-11-22T22:28:47.382Z,19.17
2022-11-22T22:31:24.121Z,18.17
2022-11-22T22:33:56.198Z,17.20
2022-11-22T22:36:26.113Z,18.63
2022-11-22T22:38:55.034Z,17.52
2022-11-22T22:41:23.220Z,16.67
2022-11-22T22:43:51.331Z,19.88
2022-11-22T22:46:21.726Z,15.23
2022-11-22T22:48:52.927Z,15.73
2022-11-22T22:51:32.762Z,16.92
2022-11-22T22:54:01.749Z,15.02
2022-11-22T22:56:31.453Z,15.80
2022-11-22T22:59:01.810Z,13.60
2022-11-22T23:01:31.635Z,15.32
2022-11-22T23:04:01.983Z,14.45
2022-11-22T23:06:37.081Z,13.02
2022-11-22T23:09:09.905Z,10.60
2022-11-22T23:11:57.260Z,13.20
2022-11-22T23:14:27.255Z,14.15
2022-11-22T23:16:58.014Z,14.75
2022-11-22T23:19:29.083Z,21.77
2022-11-22T23:21:59.881Z,18.23
2022-11-22T23:24:33.748Z,17.30
2022-11-22T23:27:02.132Z,22.55
2022-11-22T23:29:30.402Z,17.25
2022-11-22T23:31:58.579Z,17.33
2022-11-22T23:34:26.457Z,13.20
2022-11-22T23:36:54.408Z,9.43
2022-11-22T23:39:22.261Z,9.90
2022-11-22T23:41:50.429Z,14.23
2022-11-22T23:44:18.316Z,17.45
2022-11-22T23:46:46.238Z,15.30
2022-11-22T23:49:14.289Z,13.65
2022-11-22T23:51:42.272Z,13.25
2022-11-22T23:54:11.865Z,13.48
2022-11-22T23:56:39.834Z,9.88
2022-11-22T23:59:07.905Z,11.80
